createdAt,value
2018-05-07T00:00:52.315Z,70.60
2018-05-07T00:03:21.972Z,71.00
2018-05-07T00:05:51.475Z,71.10
2018-05-07T00:08:20.734Z,71.10
2018-05-07T00:10:50.183Z,71.40
2018-05-07T00:13:19.620Z,71.20
2018-05-07T00:15:49.516Z,71.20
2018-05-07T00:18:18.988Z,71.10
2018-05-07T00:20:48.418Z,71.40
2018-05-07T00:23:17.881Z,71.30
2018-05-07T00:25:47.321Z,70.90
2018-05-07T00:28:16.463Z,71.00
2018-05-07T00:30:46.138Z,71.10
2018-05-07T00:33:15.621Z,70.30
2018-05-07T00:35:45.272Z,70.60
2018-05-07T00:38:14.749Z,70.60
2018-05-07T00:40:44.256Z,70.70
2018-05-07T00:43:14.129Z,70.60
2018-05-07T00:45:43.582Z,70.60
2018-05-07T00:48:13.037Z,70.10
2018-05-07T00:50:42.913Z,70.20
2018-05-07T00:53:12.380Z,70.10
2018-05-07T00:55:42.290Z,71.10
2018-05-07T00:58:11.749Z,71.10
2018-05-07T01:00:41.200Z,70.80
2018-05-07T01:03:10.673Z,70.70
2018-05-07T01:05:40.529Z,70.20
2018-05-07T01:08:10.001Z,70.20
2018-05-07T01:10:39.516Z,70.50
2018-05-07T01:13:08.952Z,70.10
2018-05-07T01:15:38.923Z,69.30
2018-05-07T01:18:08.389Z,69.30
2018-05-07T01:20:38.052Z,70.40
2018-05-07T01:23:07.500Z,70.00
2018-05-07T01:25:36.937Z,70.40
2018-05-07T01:28:06.540Z,69.10
2018-05-07T01:30:35.999Z,69.10
2018-05-07T01:33:05.439Z,70.80
2018-05-07T01:35:35.314Z,70.50
2018-05-07T01:38:04.153Z,70.50
2018-05-07T01:40:33.617Z,70.70
2018-05-07T01:43:02.853Z,70.80
2018-05-07T01:45:32.319Z,71.30
2018-05-07T01:48:01.766Z,71.40
2018-05-07T01:50:31.225Z,71.50
2018-05-07T01:53:00.668Z,71.80
2018-05-07T01:55:30.128Z,72.90
2018-05-07T01:57:59.978Z,73.30
2018-05-07T02:00:29.110Z,73.40
2018-05-07T02:02:58.552Z,74.10
2018-05-07T02:05:27.990Z,74.60
2018-05-07T02:07:57.829Z,75.50
2018-05-07T02:10:27.012Z,75.50
2018-05-07T02:12:56.449Z,76.30
2018-05-07T02:15:25.925Z,76.70
2018-05-07T02:17:55.361Z,76.10
2018-05-07T02:20:24.841Z,75.80
2018-05-07T02:22:54.296Z,75.90
2018-05-07T02:25:23.758Z,75.70
2018-05-07T02:27:53.612Z,75.40
2018-05-07T02:30:23.081Z,75.40
2018-05-07T02:32:52.545Z,75.50
2018-05-07T02:35:22.002Z,75.80
2018-05-07T02:37:51.473Z,75.50
2018-05-07T02:40:21.321Z,75.80
2018-05-07T02:42:50.785Z,75.80
2018-05-07T02:45:20.428Z,76.50
2018-05-07T02:47:49.901Z,76.60
2018-05-07T02:50:19.021Z,76.70
2018-05-07T02:52:48.512Z,76.70
2018-05-07T02:55:17.960Z,77.40
2018-05-07T02:57:47.409Z,77.30
2018-05-07T03:00:16.998Z,77.10
2018-05-07T03:02:46.452Z,77.10
2018-05-07T03:05:15.917Z,77.20
2018-05-07T03:07:45.390Z,77.60
2018-05-07T03:10:14.830Z,77.00
2018-05-07T03:12:44.292Z,77.90
2018-05-07T03:15:13.760Z,78.40
2018-05-07T03:17:43.309Z,78.20
2018-05-07T03:20:13.190Z,77.30
2018-05-07T03:22:42.647Z,77.20
2018-05-07T03:25:12.255Z,77.50
2018-05-07T03:27:41.701Z,77.70
2018-05-07T03:30:11.549Z,77.70
2018-05-07T03:32:41.018Z,77.70
2018-05-07T03:35:10.481Z,77.90
2018-05-07T03:37:39.917Z,78.10
2018-05-07T03:40:09.589Z,78.40
2018-05-07T03:42:39.029Z,78.50
2018-05-07T03:45:08.904Z,79.90
2018-05-07T03:47:38.372Z,79.90
2018-05-07T03:50:08.226Z,79.40
2018-05-07T03:52:37.685Z,79.40
2018-05-07T03:55:07.122Z,79.30
2018-05-07T03:57:36.578Z,79.30
2018-05-07T04:00:05.685Z,79.50
2018-05-07T04:02:35.208Z,80.10
2018-05-07T04:05:03.728Z,80.10
2018-05-07T04:07:32.853Z,80.20
2018-05-07T04:10:02.493Z,80.70
2018-05-07T04:12:31.732Z,80.20
2018-05-07T04:15:02.153Z,80.10
2018-05-07T04:17:42.829Z,80.30
2018-05-07T04:20:23.158Z,80.50
2018-05-07T04:23:03.609Z,80.50
2018-05-07T04:25:32.779Z,80.70
2018-05-07T04:28:01.896Z,80.80
2018-05-07T04:30:31.387Z,80.80
2018-05-07T04:33:00.836Z,81.20
2018-05-07T04:35:30.304Z,81.10
2018-05-07T04:38:00.167Z,81.30
2018-05-07T04:40:29.650Z,81.30
2018-05-07T04:42:59.136Z,81.30
2018-05-07T04:45:28.572Z,81.30
2018-05-07T04:47:58.030Z,81.10
2018-05-07T04:50:27.512Z,80.90
2018-05-07T04:52:56.690Z,80.80
2018-05-07T04:55:26.143Z,80.80
2018-05-07T04:57:55.591Z,81.20
2018-05-07T05:00:25.440Z,81.20
2018-05-07T05:02:54.885Z,81.20
2018-05-07T05:05:24.352Z,81.40
2018-05-07T05:07:54.222Z,81.60
2018-05-07T05:10:23.660Z,81.60
2018-05-07T05:12:53.192Z,81.20
2018-05-07T05:15:22.641Z,81.10
2018-05-07T05:17:52.549Z,81.20
2018-05-07T05:20:21.994Z,81.00
2018-05-07T05:22:51.632Z,80.90
2018-05-07T05:25:21.465Z,80.50
2018-05-07T05:27:50.912Z,80.50
2018-05-07T05:30:20.372Z,79.80
2018-05-07T05:32:49.812Z,80.50
2018-05-07T05:35:19.297Z,80.10
2018-05-07T05:37:48.737Z,80.10
2018-05-07T05:40:18.622Z,79.70
2018-05-07T05:42:48.072Z,79.70
2018-05-07T05:45:17.866Z,79.70
2018-05-07T05:47:47.709Z,79.70
2018-05-07T05:50:16.989Z,79.60
2018-05-07T05:52:46.581Z,77.50
2018-05-07T05:55:16.041Z,75.30
2018-05-07T05:57:45.504Z,74.80
2018-05-07T06:00:14.950Z,75.40
2018-05-07T06:02:44.797Z,74.90
2018-05-07T06:05:14.272Z,74.90
2018-05-07T06:07:43.717Z,71.70
2018-05-07T06:10:13.798Z,73.40
2018-05-07T06:12:43.280Z,73.40
2018-05-07T06:15:14.045Z,72.80
2018-05-07T06:17:43.494Z,72.80
2018-05-07T06:20:12.945Z,70.90
2018-05-07T06:22:42.396Z,70.40
2018-05-07T06:25:12.261Z,70.90
2018-05-07T06:27:41.697Z,71.00
2018-05-07T06:30:11.223Z,70.40
2018-05-07T06:32:40.855Z,70.60
2018-05-07T06:35:10.309Z,71.00
2018-05-07T06:37:40.361Z,69.30
2018-05-07T06:40:10.025Z,69.30
2018-05-07T06:42:39.707Z,69.50
2018-05-07T06:45:09.738Z,67.90
2018-05-07T06:47:39.389Z,67.90
2018-05-07T06:50:08.861Z,68.60
2018-05-07T06:52:38.717Z,66.10
2018-05-07T06:55:07.894Z,66.00
2018-05-07T06:57:37.367Z,67.50
2018-05-07T07:00:06.808Z,67.50
2018-05-07T07:02:36.517Z,67.80
2018-05-07T07:05:06.065Z,67.80
2018-05-07T07:07:35.536Z,66.00
2018-05-07T07:10:04.981Z,67.50
2018-05-07T07:12:34.437Z,66.90
2018-05-07T07:15:03.581Z,65.00
2018-05-07T07:17:33.452Z,67.00
2018-05-07T07:20:02.917Z,67.00
2018-05-07T07:22:32.373Z,66.10
2018-05-07T07:25:01.831Z,65.20
2018-05-07T07:27:31.319Z,65.30
2018-05-07T07:30:00.773Z,65.00
2018-05-07T07:32:30.231Z,64.70
2018-05-07T07:35:00.083Z,64.60
2018-05-07T07:37:29.558Z,64.60
2018-05-07T07:39:59.014Z,64.50
2018-05-07T07:42:28.477Z,64.30
2018-05-07T07:44:57.957Z,61.80
2018-05-07T07:47:27.396Z,63.20
2018-05-07T07:49:56.848Z,63.40
2018-05-07T07:52:26.344Z,62.20
2018-05-07T07:54:56.320Z,60.50
2018-05-07T07:57:26.182Z,61.70
2018-05-07T07:59:55.613Z,61.70
2018-05-07T08:02:25.085Z,60.80
2018-05-07T08:04:54.554Z,60.50
2018-05-07T08:07:24.046Z,60.20
2018-05-07T08:09:53.867Z,59.50
2018-05-07T08:12:23.848Z,58.50
2018-05-07T08:14:53.457Z,58.50
2018-05-07T08:17:22.892Z,58.10
2018-05-07T08:19:52.355Z,58.50
2018-05-07T08:22:21.833Z,59.40
2018-05-07T08:24:51.305Z,59.60
2018-05-07T08:27:20.945Z,59.30
2018-05-07T08:29:50.376Z,58.50
2018-05-07T08:32:19.819Z,57.60
2018-05-07T08:34:49.215Z,57.20
2018-05-07T08:37:18.644Z,57.10
2018-05-07T08:39:48.081Z,57.30
2018-05-07T08:42:17.543Z,56.30
2018-05-07T08:44:47.193Z,56.30
2018-05-07T08:47:16.659Z,55.80
2018-05-07T08:49:46.117Z,54.10
2018-05-07T08:52:15.953Z,54.50
2018-05-07T08:54:45.428Z,54.50
2018-05-07T08:57:14.895Z,55.40
2018-05-07T08:59:44.759Z,54.20
2018-05-07T09:02:14.274Z,54.20
2018-05-07T09:04:43.877Z,54.70
2018-05-07T09:07:13.306Z,53.30
2018-05-07T09:09:42.508Z,54.00
2018-05-07T09:12:11.984Z,52.70
2018-05-07T09:14:41.412Z,52.60
2018-05-07T09:17:10.637Z,51.90
2018-05-07T09:19:40.493Z,51.90
2018-05-07T09:22:09.940Z,52.00
2018-05-07T09:24:39.669Z,52.80
2018-05-07T09:27:09.254Z,53.20
2018-05-07T09:29:39.107Z,53.30
2018-05-07T09:32:08.564Z,53.30
2018-05-07T09:34:38.001Z,53.20
2018-05-07T09:37:07.982Z,53.10
2018-05-07T09:39:37.525Z,53.10
2018-05-07T09:42:06.738Z,52.90
2018-05-07T09:44:36.199Z,53.70
2018-05-07T09:47:06.042Z,50.60
2018-05-07T09:49:35.501Z,50.60
2018-05-07T09:52:04.974Z,51.50
2018-05-07T09:54:34.829Z,52.80
2018-05-07T09:57:04.030Z,52.90
2018-05-07T09:59:34.080Z,51.70
2018-05-07T10:02:03.542Z,51.70
2018-05-07T10:04:32.989Z,51.80
2018-05-07T10:07:02.841Z,50.10
2018-05-07T10:09:32.297Z,50.10
2018-05-07T10:12:01.732Z,50.30
2018-05-07T10:14:31.188Z,49.80
2018-05-07T10:17:00.718Z,50.30
2018-05-07T10:19:30.280Z,51.20
2018-05-07T10:21:59.740Z,49.70
2018-05-07T10:24:29.572Z,50.20
2018-05-07T10:26:59.448Z,49.20
2018-05-07T10:29:28.923Z,49.20
2018-05-07T10:31:58.770Z,50.00
2018-05-07T10:34:28.209Z,50.00
2018-05-07T10:36:57.655Z,49.50
2018-05-07T10:39:27.309Z,49.60
2018-05-07T10:41:57.154Z,49.90
2018-05-07T10:44:27.021Z,50.20
2018-05-07T10:46:56.465Z,50.20
2018-05-07T10:49:25.909Z,49.20
2018-05-07T10:51:55.790Z,49.10
2018-05-07T10:54:25.259Z,49.10
2018-05-07T10:56:55.130Z,47.30
2018-05-07T10:59:24.632Z,47.30
2018-05-07T11:01:54.085Z,48.00
2018-05-07T11:04:23.543Z,49.20
2018-05-07T11:06:53.001Z,48.20
2018-05-07T11:09:22.457Z,47.50
2018-05-07T11:11:51.909Z,46.80
2018-05-07T11:14:21.771Z,46.90
2018-05-07T11:16:52.228Z,46.90
2018-05-07T11:19:21.667Z,46.80
2018-05-07T11:21:51.101Z,46.10
2018-05-07T11:24:20.581Z,48.00
2018-05-07T11:26:50.004Z,47.70
2018-05-07T11:29:19.436Z,46.60
2018-05-07T11:31:48.921Z,47.10
2018-05-07T11:34:18.391Z,46.10
2018-05-07T11:36:47.837Z,46.10
2018-05-07T11:39:17.705Z,46.70
2018-05-07T11:41:47.249Z,46.70
2018-05-07T11:44:16.789Z,48.30
2018-05-07T11:46:46.280Z,46.30
2018-05-07T11:49:15.920Z,47.30
2018-05-07T11:51:45.388Z,45.60
2018-05-07T11:54:15.244Z,46.20
2018-05-07T11:56:44.707Z,46.20
2018-05-07T11:59:14.169Z,45.90
2018-05-07T12:01:43.634Z,45.90
2018-05-07T12:04:13.093Z,48.70
2018-05-07T12:06:42.961Z,44.30
2018-05-07T12:09:12.399Z,44.30
2018-05-07T12:11:41.834Z,44.00
2018-05-07T12:14:11.080Z,43.80
2018-05-07T12:16:40.913Z,44.20
2018-05-07T12:19:10.776Z,46.80
2018-05-07T12:21:40.013Z,46.80
2018-05-07T12:24:09.439Z,47.10
2018-05-07T12:26:38.915Z,46.40
2018-05-07T12:29:08.396Z,46.20
2018-05-07T12:31:38.035Z,45.20
2018-05-07T12:34:07.869Z,44.20
2018-05-07T12:36:37.929Z,44.40
2018-05-07T12:39:07.366Z,44.30
2018-05-07T12:41:36.804Z,44.20
2018-05-07T12:44:06.294Z,42.50
2018-05-07T12:46:35.711Z,44.80
2018-05-07T12:49:05.181Z,43.00
2018-05-07T12:51:34.625Z,44.50
2018-05-07T12:54:04.468Z,45.40
2018-05-07T12:56:33.910Z,45.30
2018-05-07T12:59:04.365Z,44.40
2018-05-07T13:01:34.025Z,45.10
2018-05-07T13:04:03.465Z,45.70
2018-05-07T13:06:32.968Z,44.60
2018-05-07T13:09:03.080Z,43.00
2018-05-07T13:11:34.273Z,43.00
2018-05-07T13:14:03.516Z,43.50
2018-05-07T13:16:32.953Z,43.10
2018-05-07T13:19:02.405Z,42.40
2018-05-07T13:21:31.880Z,43.60
2018-05-07T13:24:01.328Z,43.50
2018-05-07T13:26:30.769Z,42.60
2018-05-07T13:29:00.276Z,43.20
2018-05-07T13:31:29.738Z,47.00
2018-05-07T13:33:59.184Z,44.00
2018-05-07T13:36:28.616Z,42.00
2018-05-07T13:38:58.051Z,42.30
2018-05-07T13:41:27.497Z,43.10
2018-05-07T13:43:57.354Z,44.70
2018-05-07T13:46:26.801Z,44.70
2018-05-07T13:48:56.252Z,44.20
2018-05-07T13:51:25.692Z,42.60
2018-05-07T13:53:55.566Z,43.70
2018-05-07T13:56:25.010Z,43.70
2018-05-07T13:58:54.245Z,42.90
2018-05-07T14:01:23.703Z,41.70
2018-05-07T14:03:53.150Z,46.20
2018-05-07T14:06:22.621Z,41.30
2018-05-07T14:08:51.819Z,42.20
2018-05-07T14:11:20.909Z,43.10
2018-05-07T14:13:50.402Z,43.70
2018-05-07T14:16:19.849Z,40.80
2018-05-07T14:18:49.319Z,41.00
2018-05-07T14:21:19.170Z,42.00
2018-05-07T14:23:48.613Z,42.00
2018-05-07T14:26:18.099Z,38.90
2018-05-07T14:28:48.172Z,39.60
2018-05-07T14:31:17.901Z,39.50
2018-05-07T14:33:47.364Z,39.60
2018-05-07T14:36:17.223Z,40.20
2018-05-07T14:38:46.702Z,40.20
2018-05-07T14:41:16.316Z,39.10
2018-05-07T14:43:45.812Z,39.70
2018-05-07T14:46:15.258Z,37.90
2018-05-07T14:48:44.732Z,39.00
2018-05-07T14:51:14.168Z,37.30
2018-05-07T14:53:43.623Z,37.70
2018-05-07T14:56:13.066Z,36.90
2018-05-07T14:58:42.612Z,35.70
2018-05-07T15:01:12.164Z,36.40
2018-05-07T15:03:41.382Z,34.90
2018-05-07T15:06:10.820Z,35.80
2018-05-07T15:08:40.268Z,35.90
2018-05-07T15:11:09.712Z,36.10
2018-05-07T15:13:39.265Z,34.30
2018-05-07T15:16:10.006Z,33.60
2018-05-07T15:18:39.537Z,32.30
2018-05-07T15:21:08.988Z,32.90
2018-05-07T15:23:38.881Z,33.40
2018-05-07T15:26:08.341Z,33.40
2018-05-07T15:28:37.523Z,33.80
2018-05-07T15:31:06.991Z,33.60
2018-05-07T15:33:36.200Z,32.80
2018-05-07T15:36:05.664Z,33.40
2018-05-07T15:38:35.129Z,33.00
2018-05-07T15:41:04.956Z,34.50
2018-05-07T15:43:34.805Z,32.70
2018-05-07T15:46:04.260Z,32.70
2018-05-07T15:48:33.757Z,33.50
2018-05-07T15:51:03.212Z,32.30
2018-05-07T15:53:32.693Z,31.80
2018-05-07T15:56:02.221Z,31.30
2018-05-07T15:58:32.262Z,33.40
2018-05-07T16:01:01.707Z,32.00
2018-05-07T16:03:31.168Z,31.80
2018-05-07T16:06:01.029Z,31.60
2018-05-07T16:08:30.444Z,31.60
2018-05-07T16:11:00.255Z,32.40
2018-05-07T16:13:29.704Z,32.40
2018-05-07T16:15:59.176Z,31.30
2018-05-07T16:18:28.652Z,30.60
2018-05-07T16:20:58.132Z,32.00
2018-05-07T16:23:27.674Z,30.60
2018-05-07T16:25:56.881Z,30.60
2018-05-07T16:28:26.324Z,31.00
2018-05-07T16:30:55.454Z,31.40
2018-05-07T16:33:25.121Z,31.60
2018-05-07T16:35:55.028Z,31.30
2018-05-07T16:38:24.254Z,31.20
2018-05-07T16:40:53.919Z,31.80
2018-05-07T16:43:23.389Z,31.30
2018-05-07T16:45:52.858Z,32.30
2018-05-07T16:48:22.329Z,31.80
2018-05-07T16:50:51.753Z,31.60
2018-05-07T16:53:21.617Z,31.70
2018-05-07T16:55:51.671Z,31.70
2018-05-07T16:58:21.568Z,30.70
2018-05-07T17:00:51.417Z,30.90
2018-05-07T17:03:20.839Z,30.90
2018-05-07T17:05:50.334Z,30.70
2018-05-07T17:08:20.206Z,30.30
2018-05-07T17:10:49.903Z,30.30
2018-05-07T17:13:19.343Z,30.90
2018-05-07T17:15:48.816Z,30.80
2018-05-07T17:18:19.011Z,32.00
2018-05-07T17:20:57.597Z,31.90
2018-05-07T17:23:27.848Z,31.30
2018-05-07T17:25:57.342Z,31.30
2018-05-07T17:28:26.771Z,32.80
2018-05-07T17:30:56.688Z,32.70
2018-05-07T17:33:26.400Z,32.60
2018-05-07T17:35:55.693Z,33.00
2018-05-07T17:38:25.134Z,32.60
2018-05-07T17:40:54.565Z,32.90
2018-05-07T17:43:24.061Z,34.70
2018-05-07T17:46:04.261Z,33.80
2018-05-07T17:48:44.753Z,33.90
2018-05-07T17:51:13.960Z,33.40
2018-05-07T17:53:43.825Z,33.70
2018-05-07T17:56:13.256Z,33.70
2018-05-07T17:58:42.720Z,34.30
2018-05-07T18:01:11.874Z,34.50
2018-05-07T18:03:41.338Z,35.40
2018-05-07T18:06:10.786Z,35.70
2018-05-07T18:08:40.361Z,36.20
2018-05-07T18:11:10.706Z,36.80
2018-05-07T18:13:41.087Z,37.30
2018-05-07T18:16:11.129Z,39.70
2018-05-07T18:18:41.037Z,41.70
2018-05-07T18:21:10.628Z,41.70
2018-05-07T18:23:40.061Z,44.00
2018-05-07T18:26:09.546Z,46.80
2018-05-07T18:28:39.387Z,48.40
2018-05-07T18:31:09.009Z,50.00
2018-05-07T18:33:39.555Z,51.40
2018-05-07T18:36:09.168Z,52.50
2018-05-07T18:38:38.812Z,53.90
2018-05-07T18:41:08.240Z,54.80
2018-05-07T18:43:37.710Z,55.20
2018-05-07T18:46:07.720Z,55.70
2018-05-07T18:48:37.128Z,55.70
2018-05-07T18:51:06.606Z,56.20
2018-05-07T18:53:36.084Z,56.90
2018-05-07T18:56:05.625Z,58.10
2018-05-07T18:58:35.103Z,58.10
2018-05-07T19:01:04.568Z,58.40
2018-05-07T19:03:34.400Z,58.50
2018-05-07T19:06:03.870Z,58.50
2018-05-07T19:08:33.021Z,58.40
2018-05-07T19:11:02.850Z,58.60
2018-05-07T19:13:32.718Z,58.40
2018-05-07T19:16:02.169Z,58.50
2018-05-07T19:18:31.619Z,58.60
2018-05-07T19:21:01.506Z,59.70
2018-05-07T19:23:30.958Z,59.70
2018-05-07T19:26:00.816Z,60.40
2018-05-07T19:28:30.273Z,60.40
2018-05-07T19:30:59.710Z,61.00
2018-05-07T19:33:29.192Z,62.00
2018-05-07T19:35:58.751Z,61.90
2018-05-07T19:38:28.277Z,62.10
2018-05-07T19:40:57.713Z,62.50
2018-05-07T19:43:27.600Z,63.10
2018-05-07T19:45:56.834Z,63.10
2018-05-07T19:48:26.309Z,63.80
2018-05-07T19:50:55.946Z,63.70
2018-05-07T19:53:25.433Z,63.50
2018-05-07T19:55:55.308Z,64.20
2018-05-07T19:58:24.785Z,64.20
2018-05-07T20:00:54.629Z,64.60
2018-05-07T20:03:24.077Z,64.60
2018-05-07T20:08:51.277Z,65.20
2018-05-07T20:11:20.765Z,65.70
2018-05-07T20:13:50.207Z,65.70
2018-05-07T20:16:19.712Z,66.30
2018-05-07T20:18:49.140Z,66.00
2018-05-07T20:21:18.592Z,66.20
2018-05-07T20:23:48.053Z,66.10
2018-05-07T20:26:17.547Z,66.10
2018-05-07T20:28:46.973Z,66.70
2018-05-07T20:31:16.960Z,67.40
2018-05-07T20:33:46.168Z,67.40
2018-05-07T20:36:15.602Z,67.20
2018-05-07T20:38:45.035Z,67.40
2018-05-07T20:41:14.513Z,67.70
2018-05-07T20:43:43.933Z,67.60
2018-05-07T20:46:13.404Z,68.00
2018-05-07T20:48:43.132Z,67.60
2018-05-07T20:51:12.609Z,67.80
2018-05-07T20:53:42.066Z,68.10
2018-05-07T20:56:11.492Z,68.20
2018-05-07T20:58:41.176Z,68.50
2018-05-07T21:01:10.624Z,68.80
2018-05-07T21:03:40.096Z,69.10
2018-05-07T21:06:09.953Z,69.80
2018-05-07T21:08:39.402Z,69.80
2018-05-07T21:11:08.854Z,69.50
2018-05-07T21:13:38.705Z,70.00
2018-05-07T21:16:08.137Z,70.00
2018-05-07T21:18:37.612Z,69.80
2018-05-07T21:21:07.457Z,70.30
2018-05-07T21:23:36.900Z,70.30
2018-05-07T21:26:06.356Z,70.20
2018-05-07T21:28:35.820Z,70.40
2018-05-07T21:31:05.265Z,70.60
2018-05-07T21:33:34.705Z,71.00
2018-05-07T21:36:03.817Z,71.60
2018-05-07T21:38:33.280Z,71.40
2018-05-07T21:41:03.136Z,71.50
2018-05-07T21:43:32.684Z,71.50
2018-05-07T21:46:02.242Z,71.20
2018-05-07T21:48:32.165Z,70.90
2018-05-07T21:51:01.609Z,70.90
2018-05-07T21:53:31.079Z,71.70
2018-05-07T21:56:00.529Z,72.20
2018-05-07T21:58:30.408Z,72.30
2018-05-07T22:00:59.866Z,72.30
2018-05-07T22:03:29.469Z,72.00
2018-05-07T22:05:59.025Z,72.00
2018-05-07T22:08:28.906Z,72.10
2018-05-07T22:10:58.041Z,72.10
2018-05-07T22:13:27.516Z,72.50
2018-05-07T22:15:56.962Z,72.10
2018-05-07T22:18:26.397Z,72.10
2018-05-07T22:20:55.890Z,72.60
2018-05-07T22:23:25.317Z,72.70
2018-05-07T22:25:54.504Z,73.50
2018-05-07T22:28:23.985Z,72.90
2018-05-07T22:30:53.465Z,73.20
2018-05-07T22:33:22.912Z,72.50
2018-05-07T22:35:52.341Z,73.10
2018-05-07T22:38:21.801Z,73.20
2018-05-07T22:40:51.237Z,73.10
2018-05-07T22:43:20.692Z,72.90
2018-05-07T22:45:49.815Z,72.90
2018-05-07T22:48:19.459Z,72.70
2018-05-07T22:50:49.309Z,73.00
2018-05-07T22:53:18.742Z,73.00
2018-05-07T22:55:48.206Z,72.50
2018-05-07T22:58:17.776Z,72.60
2018-05-07T23:00:47.265Z,72.60
2018-05-07T23:03:16.892Z,72.70
2018-05-07T23:05:46.361Z,73.50
2018-05-07T23:08:16.765Z,73.50
2018-05-07T23:10:46.632Z,73.80
2018-05-07T23:13:16.069Z,73.80
2018-05-07T23:15:45.577Z,74.00
2018-05-07T23:18:14.984Z,74.30
2018-05-07T23:20:44.196Z,74.50
2018-05-07T23:23:13.668Z,74.20
2018-05-07T23:25:43.125Z,74.00
2018-05-07T23:28:12.801Z,74.10
2018-05-07T23:30:42.265Z,73.80
2018-05-07T23:33:11.440Z,73.80
2018-05-07T23:35:40.919Z,73.80
2018-05-07T23:38:10.372Z,73.90
2018-05-07T23:40:39.853Z,73.70
2018-05-07T23:43:09.305Z,73.70
2018-05-07T23:45:38.540Z,74.00
2018-05-07T23:48:08.005Z,74.40
2018-05-07T23:50:37.454Z,74.30
2018-05-07T23:53:06.895Z,74.30
2018-05-07T23:55:36.325Z,74.50
2018-05-07T23:58:05.812Z,75.10
